Terminal Aerodrome Forecast
Issued by NWS Omaha/Valley, NE

Home | Current Version | Previous Version | Text Only | Print | Product List | Glossary On
Versions: 1 2 3 4 5 6 7 8 9 10 11 12 13 14 15 16 17 18 19 20 21 22 23 24 25 26 27 28 29 30 31 32 33 34 35 36 37 38 39
000
FTUS43 KOAX 012320
TAFOFK
TAF
KOFK 012320Z 0200/0224 35020G30KT 3SM -SN OVC020
      TEMPO 0200/0202 3/4SM -SN BLSN OVC015
     FM020200 33015KT P6SM SCT050
     FM020600 28004KT P6SM SCT250
     FM021200 20010KT P6SM SCT100=

USA.gov is the U.S. government's official web portal to all federal, state and local government web resources and services.